Latest Weather Observations for Brisbane Airport

IDQ60801

Issued at 11:31 am EST Wednesday 1 June 2016 (issued every 30 minutes, with the page automatically refreshed every 10 minutes)

About weather observations | Map of weather stations | Latest weather observations for QLD | Other Formats
Station Details ID: 040842 Name: BRISBANE AERO Lat: -27.39 Lon: 153.13 Height: 4.51 m
Data from the previous 72 hours. | See also: Recent months at Brisbane Airport
Date/Time
EST
Temp
°C
App
Temp
°C
Dew
Point
Rel
Hum
%
Delta-T
°C
Wind Press
QNH
hPa
Press
MSL
hPa
Rain
since 9 am
mm
Dir
 
Spd
km/h
Gust
km/h
Spd
kts
Gust
kts
01/11:00am 20.5 18.4 11.2 55 5.1 SE 13 20 7 11 1024.9 1024.8 0.0
01/10:30am 20.0 18.2 11.0 56 4.9 SSE 11 17 6 9 1025.3 1025.2 0.0
01/10:00am 19.8 18.0 11.0 57 4.8 S 11 15 6 8 1025.6 1025.5 0.0
01/09:30am 19.0 17.1 10.4 57 4.6 S 11 17 6 9 1025.7 1025.6 0.0
01/09:00am 18.6 16.8 10.8 60 4.2 SSE 11 17 6 9 1025.7 1025.6 0.0
01/08:30am 17.6 15.7 10.4 62 3.8 SSW 11 15 6 8 1025.4 1025.3 0.0
01/08:00am 16.8 14.9 10.6 67 3.3 SSW 11 13 6 7 1025.5 1025.4 0.0
01/07:30am 16.0 13.5 10.9 72 2.7 SSW 15 19 8 10 1025.5 1025.4 0.0
01/07:00am 15.3 13.5 10.7 74 2.4 SSW 11 15 6 8 1024.9 1024.8 0.0
01/06:30am 15.3 13.0 10.3 72 2.6 SSW 13 17 7 9 1024.7 1024.6 0.0
01/06:00am 15.9 14.3 10.2 69 3.0 S 9 11 5 6 1024.2 1024.1 0.0
01/05:30am 16.2 14.6 10.1 67 3.2 S 9 13 5 7 1024.1 1024.0 0.0
01/05:00am 16.1 14.5 10.2 68 3.1 SSW 9 11 5 6 1024.0 1023.9 0.0
01/04:30am 16.0 13.7 10.3 69 3.0 SSW 13 17 7 9 1023.9 1023.8 0.0
01/04:00am 15.3 13.4 10.5 73 2.5 SSW 11 15 6 8 1023.7 1023.6 0.0
01/03:30am 15.3 13.0 10.3 72 2.6 SSW 13 15 7 8 1023.9 1023.8 0.0
01/03:00am 15.6 13.2 10.2 70 2.8 SSW 13 15 7 8 1023.7 1023.6 0.0
01/02:30am 15.7 13.8 10.6 71 2.7 SSW 11 15 6 8 1024.0 1023.9 0.0
01/02:00am 16.1 14.6 10.6 70 2.9 SSW 9 13 5 7 1024.1 1024.0 0.0
01/01:30am 15.7 13.9 11.0 73 2.5 SSW 11 13 6 7 1024.5 1024.4 0.0
01/01:00am 16.0 14.8 11.5 74 2.4 SSW 9 11 5 6 1024.6 1024.5 0.0
01/12:30am 16.5 15.0 10.6 68 3.1 SSW 9 11 5 6 1025.0 1024.9 0.0
01/12:00am 16.5 15.0 10.4 67 3.2 S 9 11 5 6 1025.0 1024.9 0.0
 
Date/Time
EST
Temp
°C
App
Temp
°C
Dew
Point
Rel
Hum
%
Delta-T
°C
Wind Press
QNH
hPa
Press
MSL
hPa
Rain
since 9 am
mm
Dir
 
Spd
km/h
Gust
km/h
Spd
kts
Gust
kts
31/11:30pm 17.0 15.9 10.6 66 3.4 SSW 7 9 4 5 1025.4 1025.3 0.0
31/11:00pm 17.6 16.4 10.2 62 3.9 SSE 7 11 4 6 1025.1 1025.0 0.0
31/10:30pm 17.6 16.4 10.4 62 3.8 S 7 11 4 6 1025.4 1025.3 0.0
31/10:00pm 17.5 16.2 11.4 67 3.3 S 9 13 5 7 1025.4 1025.3 0.0
31/09:30pm 17.7 16.6 11.8 68 3.2 SSE 9 13 5 7 1025.9 1025.8 0.0
31/09:00pm 18.7 17.6 12.0 65 3.7 SE 9 13 5 7 1025.4 1025.3 0.0
31/08:30pm 17.9 16.8 12.1 69 3.2 SSE 9 13 5 7 1025.4 1025.3 0.0
31/08:00pm 17.8 17.3 12.8 72 2.8 SSE 7 11 4 6 1025.6 1025.5 0.0
31/07:30pm 18.4 18.0 13.0 71 3.0 SSE 7 13 4 7 1025.6 1025.5 0.0
31/07:00pm 18.4 18.3 13.8 74 2.6 SE 7 11 4 6 1025.2 1025.1 0.0
31/06:30pm 18.5 17.6 13.7 73 2.7 SE 11 17 6 9 1025.1 1025.0 0.0
31/06:00pm 18.4 17.3 14.4 77 2.3 SE 13 20 7 11 1025.0 1024.9 0.0
31/05:30pm 18.9 17.5 13.4 70 3.1 SE 13 22 7 12 1024.8 1024.7 0.0
31/05:00pm 19.4 17.2 13.2 67 3.5 SE 17 28 9 15 1024.6 1024.5 0.0
31/04:30pm 19.6 18.0 13.8 69 3.3 SE 15 26 8 14 1024.3 1024.2 0.0
31/04:00pm 20.0 18.1 14.1 69 3.4 ESE 17 30 9 16 1024.2 1024.1 0.0
31/03:30pm 20.7 18.8 12.9 61 4.4 ESE 15 26 8 14 1023.9 1023.8 0.0
31/03:00pm 20.9 18.5 12.8 60 4.6 SE 17 28 9 15 1023.9 1023.8 0.0
31/02:30pm 21.0 18.2 13.1 60 4.5 ESE 20 32 11 17 1023.8 1023.7 0.0
31/02:00pm 21.5 19.2 11.8 54 5.4 ESE 15 26 8 14 1023.8 1023.7 0.0
31/01:30pm 22.7 19.6 10.2 45 6.8 ESE 17 26 9 14 1023.8 1023.7 0.0
31/01:00pm 22.4 19.6 10.0 45 6.7 ESE 15 20 8 11 1024.4 1024.3 0.0
31/12:30pm 22.6 19.9 10.3 45 6.7 ESE 15 19 8 10 1024.5 1024.4 0.0
31/12:00pm 22.3 19.5 10.1 46 6.6 ESE 15 20 8 11 1024.8 1024.7 0.0
31/11:30am 21.9 19.1 10.1 47 6.4 SE 15 19 8 10 1025.2 1025.1 0.0
31/11:00am 22.1 18.9 8.6 42 7.1 S 15 20 8 11 1025.7 1025.6 0.0
31/10:30am 21.4 19.1 8.9 44 6.6 S 11 19 6 10 1026.1 1026.0 0.0
31/10:00am 20.7 17.6 8.9 46 6.2 SSW 15 19 8 10 1026.6 1026.5 0.0
31/09:30am 20.0 16.9 8.9 48 5.8 SSW 15 20 8 11 1026.9 1026.8 0.0
31/09:00am 18.8 15.4 9.2 53 5.0 SSW 17 22 9 12 1026.8 1026.7 0.0
31/08:30am 16.0 12.7 9.4 65 3.4 SSW 17 24 9 13 1026.2 1026.1 0.0
31/08:00am 14.9 11.6 9.6 70 2.7 SSW 17 20 9 11 1026.2 1026.1 0.0
31/07:30am 14.0 10.3 9.5 74 2.3 SSW 19 26 10 14 1026.0 1025.9 0.0
31/07:00am 11.4 8.0 9.0 85 1.2 SSW 17 22 9 12 1025.8 1025.7 0.0
31/06:30am 10.0 6.3 8.1 88 0.9 SSW 17 20 9 11 1025.5 1025.4 0.0
31/06:00am 10.1 6.4 8.0 87 1.0 SSW 17 20 9 11 1025.2 1025.1 0.0
31/05:30am 12.0 8.5 8.6 80 1.7 SSW 17 20 9 11 1024.9 1024.8 0.0
31/05:00am 11.7 8.2 8.7 82 1.5 SSW 17 19 9 10 1024.7 1024.6 0.0
31/04:30am 12.1 9.0 8.7 80 1.7 SSW 15 19 8 10 1024.3 1024.2 0.0
31/04:00am 10.8 7.6 8.5 86 1.1 SSW 15 19 8 10 1024.3 1024.2 0.0
31/03:30am 11.1 7.6 8.7 85 1.2 SSW 17 19 9 10 1024.2 1024.1 0.0
31/03:00am 11.7 9.0 9.1 84 1.3 SSW 13 19 7 10 1024.3 1024.2 0.0
31/02:30am 12.1 9.5 9.3 83 1.4 SSW 13 19 7 10 1024.2 1024.1 0.0
31/02:00am 12.3 10.1 9.5 83 1.4 SSW 11 13 6 7 1024.5 1024.4 0.0
31/01:30am 11.3 9.1 9.3 87 1.0 SW 11 13 6 7 1024.6 1024.5 0.0
31/01:00am 11.7 10.0 9.9 89 0.9 SSW 9 11 5 6 1024.5 1024.4 0.0
31/12:30am 12.1 10.8 9.9 86 1.1 SSW 7 9 4 5 1024.4 1024.3 0.0
31/12:00am 11.7 9.9 9.5 86 1.1 SSW 9 11 5 6 1024.6 1024.5 0.0
 
Date/Time
EST
Temp
°C
App
Temp
°C
Dew
Point
Rel
Hum
%
Delta-T
°C
Wind Press
QNH
hPa
Press
MSL
hPa
Rain
since 9 am
mm
Dir
 
Spd
km/h
Gust
km/h
Spd
kts
Gust
kts
30/11:30pm 11.9 10.5 9.7 86 1.1 SSW 7 11 4 6 1024.7 1024.6 0.0
30/11:00pm 12.2 10.9 9.8 85 1.2 SW 7 9 4 5 1024.8 1024.7 0.0
30/10:30pm 12.8 11.3 10.5 86 1.2 SW 9 11 5 6 1024.9 1024.8 0.0
30/10:00pm 12.5 10.8 9.7 83 1.4 SW 9 11 5 6 1024.7 1024.6 0.0
30/09:30pm 13.3 11.8 10.4 82 1.5 WSW 9 9 5 5 1024.7 1024.6 0.0
30/09:00pm 14.1 13.9 10.4 78 1.9 SW 2 7 1 4 1024.6 1024.5 0.0
30/08:30pm 13.9 12.9 10.4 79 1.8 SE 6 7 3 4 1024.4 1024.3 0.0
30/08:00pm 16.1 15.1 11.0 72 2.7 E 7 7 4 4 1024.3 1024.2 0.0
30/07:30pm 16.6 15.5 10.8 68 3.1 E 7 7 4 4 1023.9 1023.8 0.0
30/07:00pm 17.3 16.4 11.4 68 3.2 E 7 9 4 5 1023.6 1023.5 0.0
30/06:30pm 17.4 16.4 11.1 66 3.4 E 7 11 4 6 1023.5 1023.4 0.0
30/06:00pm 18.1 17.0 10.6 61 4.0 E 7 9 4 5 1023.2 1023.1 0.0
30/05:30pm 18.3 16.9 10.9 62 4.0 E 9 11 5 6 1022.9 1022.8 0.0
30/05:00pm 19.2 17.9 10.0 55 4.9 E 7 11 4 6 1022.6 1022.5 0.0
30/04:30pm 20.0 18.4 10.3 53 5.2 ENE 9 13 5 7 1022.5 1022.4 0.0
30/04:00pm 20.9 18.4 9.7 48 6.0 NE 13 19 7 10 1022.0 1021.9 0.0
30/03:30pm 21.2 18.0 8.4 43 6.7 NE 15 20 8 11 1021.8 1021.7 0.0
30/03:00pm 21.5 18.2 8.0 42 7.0 ENE 15 20 8 11 1021.7 1021.6 0.0
30/02:30pm 21.8 18.5 8.2 41 7.1 ENE 15 19 8 10 1021.8 1021.7 0.0
30/02:00pm 21.6 18.8 8.7 43 6.8 ENE 13 19 7 10 1021.7 1021.6 0.0
30/01:30pm 21.5 18.6 9.8 47 6.3 NE 15 20 8 11 1021.8 1021.7 0.0
30/01:00pm 21.5 19.5 10.0 48 6.2 ENE 11 19 6 10 1021.8 1021.7 0.0
30/12:30pm 21.3 19.3 10.2 49 6.0 ENE 11 17 6 9 1022.0 1021.9 0.0
30/12:00pm 21.2 19.4 9.4 47 6.3 ESE 9 13 5 7 1022.6 1022.5 0.0
30/11:30am 21.4 20.1 9.1 45 6.5 SSW 6 15 3 8 1023.2 1023.1 0.0
30/11:00am 20.5 17.9 7.9 44 6.5 SSW 11 15 6 8 1023.6 1023.5 0.0
30/10:30am 18.8 15.6 6.8 45 6.0 S 13 17 7 9 1023.7 1023.6 0.0
30/10:00am 17.8 13.6 5.6 44 5.9 SSW 17 22 9 12 1024.0 1023.9 0.0
30/09:30am 16.8 12.5 5.3 46 5.5 SW 17 22 9 12 1024.1 1024.0 0.0
30/09:00am 15.9 11.6 5.1 48 5.1 SSW 17 20 9 11 1024.0 1023.9 0.0
30/08:30am 14.5 10.3 5.9 56 4.1 SSW 17 22 9 12 1023.8 1023.7 0.0
30/08:00am 12.7 9.1 6.6 66 2.9 SSW 15 19 8 10 1023.5 1023.4 0.0
30/07:30am 10.6 6.9 6.5 76 1.9 SSW 15 19 8 10 1023.2 1023.1 0.0
30/07:00am 8.3 5.4 4.9 79 1.5 SSW 9 13 5 7 1022.8 1022.7 0.0
30/06:30am 8.7 5.4 4.6 75 1.8 SSW 11 13 6 7 1022.4 1022.3 0.0
30/06:00am 9.0 5.8 5.0 76 1.8 SSW 11 13 6 7 1022.0 1021.9 0.0
30/05:30am 8.0 4.4 4.8 80 1.4 SW 13 17 7 9 1021.7 1021.6 0.0
30/05:00am 7.1 3.4 4.6 84 1.1 SW 13 15 7 8 1021.3 1021.2 0.0
30/04:30am 8.8 5.1 4.7 75 1.8 SSW 13 15 7 8 1021.0 1020.9 0.0
30/04:00am 9.8 6.5 4.6 70 2.3 S 11 15 6 8 1020.9 1020.8 0.0
30/03:30am 9.8 6.5 4.6 70 2.3 SSW 11 13 6 7 1020.8 1020.7 0.0
30/03:00am 9.3 6.8 4.8 73 2.0 SSW 7 11 4 6 1020.7 1020.6 0.0
30/02:30am 10.0 6.8 4.9 70 2.3 SSW 11 13 6 7 1020.6 1020.5 0.0
30/02:00am 10.0 6.8 4.9 70 2.3 SSW 11 13 6 7 1020.5 1020.4 0.0
30/01:30am 9.0 6.6 5.2 77 1.7 SSW 7 9 4 5 1020.3 1020.2 0.0
30/01:00am 10.0 6.8 5.1 71 2.2 SSW 11 13 6 7 1020.2 1020.1 0.0
30/12:30am 11.2 8.5 5.5 68 2.6 SSW 9 11 5 6 1020.4 1020.3 0.0
30/12:00am 11.2 8.4 5.3 67 2.7 SW 9 11 5 6 1020.2 1020.1 0.0
 
Date/Time
EST
Temp
°C
App
Temp
°C
Dew
Point
Rel
Hum
%
Delta-T
°C
Wind Press
QNH
hPa
Press
MSL
hPa
Rain
since 9 am
mm
Dir
 
Spd
km/h
Gust
km/h
Spd
kts
Gust
kts
29/11:30pm 10.6 7.6 5.8 72 2.2 SW 11 13 6 7 1020.5 1020.4 0.0
29/11:00pm 11.9 8.9 5.9 66 2.8 SW 11 13 6 7 1020.7 1020.6 0.0
29/10:30pm 13.3 9.7 6.9 65 3.1 W 15 19 8 10 1020.5 1020.4 0.0
29/10:00pm 14.5 10.6 5.4 54 4.3 W 15 17 8 9 1020.5 1020.4 0.0
29/09:30pm 12.7 11.3 8.7 76 2.0 SW 6 11 3 6 1020.4 1020.3 0.0
29/09:00pm 13.1 11.8 9.1 77 2.0 WSW 6 7 3 4 1020.3 1020.2 0.0
29/08:30pm 13.0 12.1 9.4 79 1.8 SSW 4 9 2 5 1020.1 1020.0 0.0
29/08:00pm 13.5 12.1 9.6 77 2.0 SE 7 7 4 4 1019.9 1019.8 0.0
29/07:30pm 13.8 12.5 9.3 74 2.3 ESE 6 7 3 4 1019.6 1019.5 0.0
29/07:00pm 14.7 13.3 9.7 72 2.6 E 7 9 4 5 1019.2 1019.1 0.0
29/06:30pm 16.2 14.6 10.1 67 3.2 E 9 13 5 7 1018.8 1018.7 0.0
29/06:00pm 15.9 14.2 8.2 60 3.9 ENE 7 11 4 6 1018.4 1018.3 0.0
29/05:30pm 14.8 13.1 8.4 65 3.2 NNE 7 9 4 5 1018.0 1017.9 0.0
29/05:00pm 17.6 15.1 8.2 54 4.8 NE 11 13 6 7 1017.4 1017.4 0.0
29/04:30pm 18.6 16.0 7.6 48 5.6 NE 11 15 6 8 1017.1 1017.1 0.0
29/04:00pm 19.3 15.6 6.5 43 6.4 NE 15 19 8 10 1016.9 1016.9 0.0
29/03:30pm 19.6 15.8 7.4 45 6.2 NNE 17 20 9 11 1016.7 1016.7 0.0
29/03:00pm 20.4 16.6 7.5 43 6.6 NNE 17 19 9 10 1016.4 1016.4 0.0
29/02:30pm 20.8 17.1 6.3 39 7.3 NNE 15 19 8 10 1016.3 1016.3 0.0
29/02:00pm 20.8 16.6 3.9 33 8.1 NE 15 17 8 9 1016.2 1016.2 0.0
29/01:30pm 20.1 16.0 6.3 40 6.9 NNE 17 20 9 11 1016.1 1016.1 0.0
29/01:00pm 22.9 17.8 1.0 23 10.1 NNE 17 20 9 11 1016.3 1016.3 0.0
29/12:30pm 21.2 16.9 0.9 26 9.2 WSW 13 19 7 10 1016.6 1016.6 0.0
29/12:00pm 20.5 16.4 2.1 29 8.5 SW 13 19 7 10 1017.0 1017.0 0.0

Other Formats:

Comma delimited format used in spreadsheet applications
http://www.bom.gov.au/fwo/IDQ60801/IDQ60801.94578.axf

JavaScript Object Notation format (JSON) in row-major order
http://www.bom.gov.au/fwo/IDQ60801/IDQ60801.94578.json